createdAt,value
2022-11-05T00:09:56.787Z,25.1123
2022-11-05T00:24:58.611Z,25.2881
2022-11-05T00:40:00.510Z,26.2111
2022-11-05T00:55:02.381Z,25.5679
2022-11-05T01:10:04.232Z,26.065
2022-11-05T01:25:06.087Z,25.844
2022-11-05T01:40:07.916Z,25.2497
2022-11-05T01:55:09.727Z,25.9449
2022-11-05T02:10:11.645Z,26.2179
2022-11-05T02:25:13.476Z,26.3417
2022-11-05T02:40:15.314Z,25.0968
2022-11-05T02:55:17.196Z,26.3609
2022-11-05T03:10:19.062Z,25.8019
2022-11-05T03:25:20.948Z,24.9049
2022-11-05T03:40:22.791Z,25.4738
2022-11-05T03:55:24.675Z,25.7988
2022-11-05T04:10:26.606Z,25.753
2022-11-05T04:25:28.452Z,25.961
2022-11-05T04:40:30.278Z,26.3188
2022-11-05T04:55:32.102Z,25.9127
2022-11-05T05:10:34.139Z,25.6236
2022-11-05T05:25:36.006Z,25.7697
2022-11-05T05:40:37.970Z,25.8087
2022-11-05T05:55:40.010Z,25.6756
2022-11-05T06:10:42.013Z,24.9699
2022-11-05T06:25:44.002Z,24.3911
2022-11-05T06:40:45.950Z,25.9839
2022-11-05T06:55:47.889Z,25.4478
2022-11-05T07:10:49.830Z,25.4998
2022-11-05T07:25:51.757Z,25.8149
2022-11-05T07:40:53.664Z,25.4967
2022-11-05T07:55:55.575Z,24.9829
2022-11-05T08:10:57.581Z,25.8242
2022-11-05T08:25:59.540Z,25.7239
2022-11-05T08:41:01.477Z,25.5648
2022-11-05T08:56:03.421Z,25.0287
2022-11-05T09:11:05.332Z,26.0328
2022-11-05T09:26:07.296Z,26.1888
2022-11-05T09:41:09.227Z,25.857
2022-11-05T09:56:11.175Z,26.286
2022-11-05T10:11:13.074Z,25.9876
2022-11-05T10:26:14.989Z,27.3848
2022-11-05T10:41:16.892Z,25.8118
2022-11-05T10:56:18.813Z,24.752
2022-11-05T11:11:20.783Z,24.57
2022-11-05T11:26:22.664Z,25.025
2022-11-05T11:41:24.595Z,23.894
2022-11-05T11:56:26.535Z,23.9002
2022-11-05T12:11:28.429Z,24.5335
2022-11-05T12:26:30.355Z,23.5164
2022-11-05T12:41:32.362Z,23.4093
2022-11-05T12:56:34.271Z,23.7634
2022-11-05T13:11:36.248Z,22.7692
2022-11-05T13:26:38.152Z,24.5174
2022-11-05T13:41:40.031Z,23.5523
2022-11-05T13:56:42.077Z,23.3214
2022-11-05T14:11:44.031Z,23.1363
2022-11-05T14:26:45.933Z,23.7665
2022-11-05T14:41:47.924Z,23.2106
2022-11-05T14:56:55.920Z,23.7015
2022-11-05T15:11:58.494Z,23.9974
2022-11-05T15:27:00.461Z,23.6984
2022-11-05T15:42:02.409Z,23.3833
2022-11-05T15:57:04.375Z,23.5715
2022-11-05T16:12:06.378Z,23.1165
2022-11-05T16:27:08.290Z,21.9923
2022-11-05T16:42:10.208Z,24.0005
2022-11-05T16:57:12.167Z,23.7077
2022-11-05T17:12:14.092Z,22.9475
2022-11-05T17:27:16.215Z,20.8545
2022-11-05T17:42:18.236Z,20.6756
2022-11-05T17:57:20.186Z,21.1306
2022-11-05T18:12:22.129Z,21.7379
2022-11-05T18:27:24.155Z,21.4717
2022-11-05T18:42:26.109Z,22.5476
2022-11-05T18:57:28.126Z,22.9766
2022-11-05T19:12:30.082Z,22.5538
2022-11-05T19:27:31.955Z,22.3105
2022-11-05T19:42:33.892Z,22.7587
2022-11-05T19:57:35.801Z,22.5606
2022-11-05T20:12:37.745Z,23.1617
2022-11-05T20:27:39.753Z,23.2855
2022-11-05T20:42:41.679Z,24.3973
2022-11-05T20:57:43.840Z,23.9262
2022-11-05T21:12:45.729Z,24.3843
2022-11-05T21:27:47.709Z,21.5082
2022-11-05T21:42:49.613Z,24.7935
2022-11-05T21:57:51.588Z,23.1035
2022-11-05T22:12:53.535Z,23.1004
2022-11-05T22:27:55.620Z,24.024
2022-11-05T22:42:57.578Z,24.3422
2022-11-05T22:57:59.490Z,24.9074
2022-11-05T23:13:01.388Z,24.6022
2022-11-05T23:28:03.392Z,24.4722
2022-11-05T23:43:05.284Z,24.5174
2022-11-05T23:58:07.269Z,24.1955
